sensor_id;sensor_type;location;lat;lon;timestamp;pressure;altitude;pressure_sealevel;temperature;humidity
22755;BME280;11544;42.020;23.094;2023-05-23T00:01:03;96894.91;;;16.32;89.12
22755;BME280;11544;42.020;23.094;2023-05-23T00:03:34;96892.81;;;16.78;88.96
22755;BME280;11544;42.020;23.094;2023-05-23T00:06:01;96896.22;;;16.39;89.14
22755;BME280;11544;42.020;23.094;2023-05-23T00:08:28;96895.19;;;16.96;87.17
22755;BME280;11544;42.020;23.094;2023-05-23T00:10:55;96901.59;;;16.64;87.96
22755;BME280;11544;42.020;23.094;2023-05-23T00:13:22;96898.88;;;16.93;86.83
22755;BME280;11544;42.020;23.094;2023-05-23T00:15:49;96893.84;;;16.76;85.85
22755;BME280;11544;42.020;23.094;2023-05-23T00:18:16;96902.53;;;16.90;86.49
22755;BME280;11544;42.020;23.094;2023-05-23T00:20:43;96894.13;;;16.71;87.95
22755;BME280;11544;42.020;23.094;2023-05-23T00:23:11;96899.34;;;16.31;90.16
22755;BME280;11544;42.020;23.094;2023-05-23T00:25:45;96901.38;;;16.40;91.82
22755;BME280;11544;42.020;23.094;2023-05-23T00:28:19;96904.91;;;16.12;93.05
22755;BME280;11544;42.020;23.094;2023-05-23T00:30:46;96912.13;;;16.08;92.49
22755;BME280;11544;42.020;23.094;2023-05-23T00:33:15;96907.69;;;16.38;92.02
22755;BME280;11544;42.020;23.094;2023-05-23T00:35:43;96908.94;;;16.59;91.53
22755;BME280;11544;42.020;23.094;2023-05-23T00:38:10;96905.97;;;16.78;91.42
22755;BME280;11544;42.020;23.094;2023-05-23T00:40:37;96914.66;;;16.66;91.28
22755;BME280;11544;42.020;23.094;2023-05-23T00:43:05;96919.25;;;16.62;90.14
22755;BME280;11544;42.020;23.094;2023-05-23T00:45:34;96912.84;;;16.66;90.56
22755;BME280;11544;42.020;23.094;2023-05-23T00:48:01;96917.91;;;16.42;92.43
22755;BME280;11544;42.020;23.094;2023-05-23T00:50:29;96918.88;;;16.68;91.73
22755;BME280;11544;42.020;23.094;2023-05-23T00:52:57;96930.53;;;16.23;91.29
22755;BME280;11544;42.020;23.094;2023-05-23T00:55:26;96927.44;;;16.30;94.61
22755;BME280;11544;42.020;23.094;2023-05-23T00:57:54;96934.19;;;16.06;94.62
22755;BME280;11544;42.020;23.094;2023-05-23T01:00:23;96931.41;;;15.95;96.32
22755;BME280;11544;42.020;23.094;2023-05-23T01:02:51;96922.97;;;16.04;95.14
22755;BME280;11544;42.020;23.094;2023-05-23T01:05:20;96926.31;;;16.35;94.81
22755;BME280;11544;42.020;23.094;2023-05-23T01:07:49;96925.78;;;16.57;92.45
22755;BME280;11544;42.020;23.094;2023-05-23T01:10:18;96923.41;;;15.96;96.68
22755;BME280;11544;42.020;23.094;2023-05-23T01:13:21;96920.41;;;16.02;94.54
22755;BME280;11544;42.020;23.094;2023-05-23T01:16:04;96915.06;;;15.90;94.90
22755;BME280;11544;42.020;23.094;2023-05-23T01:18:47;96923.56;;;15.50;99.87
22755;BME280;11544;42.020;23.094;2023-05-23T01:21:21;96929.16;;;15.44;100.00
22755;BME280;11544;42.020;23.094;2023-05-23T01:29:25;96911.47;;;15.62;100.00
22755;BME280;11544;42.020;23.094;2023-05-23T01:31:56;96910.59;;;15.02;100.00
22755;BME280;11544;42.020;23.094;2023-05-23T01:34:24;96916.03;;;15.44;100.00
22755;BME280;11544;42.020;23.094;2023-05-23T01:36:54;96917.72;;;15.31;100.00
22755;BME280;11544;42.020;23.094;2023-05-23T01:39:22;96919.22;;;15.63;100.00
22755;BME280;11544;42.020;23.094;2023-05-23T01:41:50;96914.88;;;15.78;100.00
22755;BME280;11544;42.020;23.094;2023-05-23T01:44:19;96910.59;;;15.47;100.00
22755;BME280;11544;42.020;23.094;2023-05-23T01:46:47;96907.88;;;15.63;100.00
22755;BME280;11544;42.020;23.094;2023-05-23T01:49:15;96911.66;;;15.14;100.00
22755;BME280;11544;42.020;23.094;2023-05-23T01:51:43;96918.44;;;14.88;100.00
22755;BME280;11544;42.020;23.094;2023-05-23T01:54:11;96909.97;;;15.13;100.00
22755;BME280;11544;42.020;23.094;2023-05-23T01:56:39;96914.69;;;15.22;100.00
22755;BME280;11544;42.020;23.094;2023-05-23T01:59:06;96922.66;;;15.35;100.00
22755;BME280;11544;42.020;23.094;2023-05-23T02:01:33;96919.00;;;14.93;100.00
22755;BME280;11544;42.020;23.094;2023-05-23T02:04:01;96920.66;;;15.55;100.00
22755;BME280;11544;42.020;23.094;2023-05-23T02:06:27;96912.09;;;15.51;100.00
22755;BME280;11544;42.020;23.094;2023-05-23T02:19:49;96923.31;;;14.94;100.00
22755;BME280;11544;42.020;23.094;2023-05-23T02:22:17;96926.47;;;14.69;100.00
22755;BME280;11544;42.020;23.094;2023-05-23T02:24:43;96918.09;;;14.78;100.00
22755;BME280;11544;42.020;23.094;2023-05-23T02:27:10;96928.78;;;14.59;100.00
22755;BME280;11544;42.020;23.094;2023-05-23T02:29:37;96926.47;;;14.53;100.00
22755;BME280;11544;42.020;23.094;2023-05-23T02:32:04;96930.19;;;14.49;100.00
22755;BME280;11544;42.020;23.094;2023-05-23T02:34:31;96933.81;;;14.31;100.00
22755;BME280;11544;42.020;23.094;2023-05-23T02:36:58;96928.19;;;14.70;100.00
22755;BME280;11544;42.020;23.094;2023-05-23T02:39:26;96930.19;;;14.49;100.00
22755;BME280;11544;42.020;23.094;2023-05-23T02:41:53;96931.78;;;14.52;100.00
22755;BME280;11544;42.020;23.094;2023-05-23T02:44:19;96932.41;;;14.57;100.00
22755;BME280;11544;42.020;23.094;2023-05-23T02:46:46;96933.81;;;14.31;100.00
22755;BME280;11544;42.020;23.094;2023-05-23T02:49:13;96931.72;;;14.37;100.00
22755;BME280;11544;42.020;23.094;2023-05-23T02:51:40;96928.25;;;14.53;100.00
22755;BME280;11544;42.020;23.094;2023-05-23T02:54:07;96932.91;;;14.16;100.00
22755;BME280;11544;42.020;23.094;2023-05-23T02:56:34;96937.81;;;14.38;100.00
22755;BME280;11544;42.020;23.094;2023-05-23T02:59:01;96934.88;;;13.95;100.00
22755;BME280;11544;42.020;23.094;2023-05-23T03:01:28;96944.56;;;14.10;100.00
22755;BME280;11544;42.020;23.094;2023-05-23T03:03:55;96945.56;;;13.74;100.00
22755;BME280;11544;42.020;23.094;2023-05-23T03:06:24;96936.56;;;13.96;100.00
22755;BME280;11544;42.020;23.094;2023-05-23T03:08:50;96939.06;;;13.66;100.00
22755;BME280;11544;42.020;23.094;2023-05-23T03:11:17;96941.91;;;13.61;100.00
22755;BME280;11544;42.020;23.094;2023-05-23T03:13:44;96947.25;;;14.09;100.00
22755;BME280;11544;42.020;23.094;2023-05-23T03:16:11;96943.34;;;13.84;100.00
22755;BME280;11544;42.020;23.094;2023-05-23T03:18:38;96944.13;;;13.69;100.00
22755;BME280;11544;42.020;23.094;2023-05-23T03:21:07;96929.97;;;13.89;100.00
22755;BME280;11544;42.020;23.094;2023-05-23T03:23:35;96935.69;;;14.29;100.00
22755;BME280;11544;42.020;23.094;2023-05-23T03:26:02;96932.19;;;14.12;100.00
22755;BME280;11544;42.020;23.094;2023-05-23T03:28:32;96944.41;;;14.45;100.00
22755;BME280;11544;42.020;23.094;2023-05-23T03:30:59;96943.81;;;14.40;100.00
22755;BME280;11544;42.020;23.094;2023-05-23T03:33:26;96935.94;;;14.40;100.00
22755;BME280;11544;42.020;23.094;2023-05-23T03:35:53;96933.22;;;14.89;100.00
22755;BME280;11544;42.020;23.094;2023-05-23T03:38:20;96941.69;;;14.78;100.00
22755;BME280;11544;42.020;23.094;2023-05-23T03:40:47;96950.50;;;14.77;100.00
22755;BME280;11544;42.020;23.094;2023-05-23T03:43:14;96940.88;;;14.62;100.00
22755;BME280;11544;42.020;23.094;2023-05-23T03:45:44;96943.59;;;15.07;100.00
22755;BME280;11544;42.020;23.094;2023-05-23T03:48:11;96938.13;;;15.70;95.89
22755;BME280;11544;42.020;23.094;2023-05-23T03:50:38;96939.41;;;15.49;97.25
22755;BME280;11544;42.020;23.094;2023-05-23T03:53:06;96946.50;;;15.46;96.98
22755;BME280;11544;42.020;23.094;2023-05-23T03:55:33;96928.63;;;15.67;94.54
22755;BME280;11544;42.020;23.094;2023-05-23T03:58:02;96937.28;;;15.25;96.19
22755;BME280;11544;42.020;23.094;2023-05-23T04:00:29;96938.13;;;14.95;98.41
22755;BME280;11544;42.020;23.094;2023-05-23T04:02:56;96929.75;;;15.63;97.15
22755;BME280;11544;42.020;23.094;2023-05-23T04:05:23;96938.41;;;15.35;98.88
22755;BME280;11544;42.020;23.094;2023-05-23T04:07:50;96941.78;;;14.13;100.00
22755;BME280;11544;42.020;23.094;2023-05-23T04:10:18;96946.75;;;14.50;100.00
22755;BME280;11544;42.020;23.094;2023-05-23T04:12:44;96943.47;;;14.94;100.00
22755;BME280;11544;42.020;23.094;2023-05-23T04:15:13;96944.38;;;14.93;100.00
22755;BME280;11544;42.020;23.094;2023-05-23T04:17:40;96949.22;;;15.00;100.00
22755;BME280;11544;42.020;23.094;2023-05-23T04:20:09;96948.72;;;15.24;100.00
22755;BME280;11544;42.020;23.094;2023-05-23T04:22:36;96950.41;;;15.70;98.51
22755;BME280;11544;42.020;23.094;2023-05-23T04:25:03;96951.19;;;16.29;100.00
22755;BME280;11544;42.020;23.094;2023-05-23T04:27:30;96938.47;;;16.91;88.04
22755;BME280;11544;42.020;23.094;2023-05-23T04:29:57;96945.72;;;16.88;86.51
22755;BME280;11544;42.020;23.094;2023-05-23T04:32:26;96946.72;;;16.44;85.79
22755;BME280;11544;42.020;23.094;2023-05-23T04:34:53;96944.97;;;17.26;85.67
22755;BME280;11544;42.020;23.094;2023-05-23T04:37:20;96942.31;;;16.59;85.49
22755;BME280;11544;42.020;23.094;2023-05-23T04:40:03;96940.75;;;17.23;81.70
22755;BME280;11544;42.020;23.094;2023-05-23T04:42:34;96935.53;;;17.62;83.99
22755;BME280;11544;42.020;23.094;2023-05-23T04:45:01;96944.44;;;16.81;84.34
22755;BME280;11544;42.020;23.094;2023-05-23T04:47:29;96932.06;;;18.25;78.87
22755;BME280;11544;42.020;23.094;2023-05-23T04:50:08;96938.72;;;17.54;77.41
22755;BME280;11544;42.020;23.094;2023-05-23T04:52:58;96934.88;;;18.72;70.20
22755;BME280;11544;42.020;23.094;2023-05-23T04:55:43;96932.44;;;19.41;68.48
22755;BME280;11544;42.020;23.094;2023-05-23T05:04:06;96941.09;;;19.78;67.83
22755;BME280;11544;42.020;23.094;2023-05-23T05:38:43;96927.78;;;20.14;72.24
22755;BME280;11544;42.020;23.094;2023-05-23T05:41:15;96930.63;;;20.67;67.64
22755;BME280;11544;42.020;23.094;2023-05-23T05:43:42;96934.88;;;20.13;69.86
22755;BME280;11544;42.020;23.094;2023-05-23T05:46:12;96932.50;;;19.63;69.55
22755;BME280;11544;42.020;23.094;2023-05-23T05:48:39;96930.53;;;20.35;68.11
22755;BME280;11544;42.020;23.094;2023-05-23T05:51:06;96928.47;;;19.93;68.19
22755;BME280;11544;42.020;23.094;2023-05-23T05:53:39;96932.63;;;19.62;69.40
22755;BME280;11544;42.020;23.094;2023-05-23T05:56:06;96934.13;;;19.88;67.71
22755;BME280;11544;42.020;23.094;2023-05-23T05:58:35;96932.66;;;21.39;64.17
22755;BME280;11544;42.020;23.094;2023-05-23T06:01:02;96924.72;;;21.07;63.40
22755;BME280;11544;42.020;23.094;2023-05-23T06:03:31;96920.88;;;21.00;61.81
22755;BME280;11544;42.020;23.094;2023-05-23T06:05:59;96922.59;;;20.46;64.23
22755;BME280;11544;42.020;23.094;2023-05-23T06:08:27;96919.03;;;21.65;59.81
22755;BME280;11544;42.020;23.094;2023-05-23T06:10:54;96914.72;;;21.94;60.54
22755;BME280;11544;42.020;23.094;2023-05-23T06:13:22;96906.47;;;21.88;60.54
22755;BME280;11544;42.020;23.094;2023-05-23T06:15:49;96911.75;;;21.57;58.87
22755;BME280;11544;42.020;23.094;2023-05-23T06:18:16;96911.91;;;20.91;60.56
22755;BME280;11544;42.020;23.094;2023-05-23T06:20:43;96912.03;;;21.22;59.78
22755;BME280;11544;42.020;23.094;2023-05-23T06:23:10;96918.16;;;20.13;61.19
22755;BME280;11544;42.020;23.094;2023-05-23T06:25:37;96912.22;;;19.86;62.78
22755;BME280;11544;42.020;23.094;2023-05-23T06:28:04;96908.16;;;20.93;58.94
22755;BME280;11544;42.020;23.094;2023-05-23T06:30:31;96918.13;;;19.90;62.44
22755;BME280;11544;42.020;23.094;2023-05-23T06:33:01;96910.09;;;20.91;60.28
22755;BME280;11544;42.020;23.094;2023-05-23T06:35:28;96908.91;;;21.38;58.17
22755;BME280;11544;42.020;23.094;2023-05-23T06:37:56;96916.69;;;20.31;59.49
22755;BME280;11544;42.020;23.094;2023-05-23T06:40:23;96909.44;;;20.99;59.67
22755;BME280;11544;42.020;23.094;2023-05-23T06:42:51;96898.44;;;21.47;61.08
22755;BME280;11544;42.020;23.094;2023-05-23T06:45:18;96897.44;;;21.69;60.13
22755;BME280;11544;42.020;23.094;2023-05-23T06:47:45;96896.81;;;22.17;56.56
22755;BME280;11544;42.020;23.094;2023-05-23T06:50:14;96896.56;;;21.27;56.53
22755;BME280;11544;42.020;23.094;2023-05-23T06:52:40;96891.28;;;22.21;57.47
22755;BME280;11544;42.020;23.094;2023-05-23T06:55:08;96897.53;;;21.89;56.59
22755;BME280;11544;42.020;23.094;2023-05-23T06:57:38;96883.06;;;23.22;54.26
22755;BME280;11544;42.020;23.094;2023-05-23T07:00:06;96891.56;;;21.96;56.77
22755;BME280;11544;42.020;23.094;2023-05-23T07:02:34;96887.38;;;22.34;55.64
22755;BME280;11544;42.020;23.094;2023-05-23T07:05:03;96885.44;;;22.36;55.00
22755;BME280;11544;42.020;23.094;2023-05-23T07:07:30;96884.25;;;21.89;56.89
22755;BME280;11544;42.020;23.094;2023-05-23T07:09:58;96880.13;;;22.06;58.11
22755;BME280;11544;42.020;23.094;2023-05-23T07:12:25;96878.06;;;22.50;55.00
22755;BME280;11544;42.020;23.094;2023-05-23T07:14:52;96867.63;;;22.77;56.97
22755;BME280;11544;42.020;23.094;2023-05-23T07:17:20;96865.75;;;22.08;57.48
22755;BME280;11544;42.020;23.094;2023-05-23T07:19:48;96861.47;;;22.67;54.23
22755;BME280;11544;42.020;23.094;2023-05-23T07:22:20;96858.81;;;22.87;55.54
22755;BME280;11544;42.020;23.094;2023-05-23T07:24:47;96860.19;;;22.61;54.98
22755;BME280;11544;42.020;23.094;2023-05-23T07:27:17;96849.50;;;23.68;52.95
22755;BME280;11544;42.020;23.094;2023-05-23T07:29:48;96840.22;;;23.25;55.33
22755;BME280;11544;42.020;23.094;2023-05-23T07:32:21;96848.78;;;23.76;54.99
22755;BME280;11544;42.020;23.094;2023-05-23T07:34:51;96848.13;;;24.02;52.43
22755;BME280;11544;42.020;23.094;2023-05-23T07:37:22;96843.53;;;23.47;54.19
22755;BME280;11544;42.020;23.094;2023-05-23T07:39:55;96842.38;;;24.06;52.22
22755;BME280;11544;42.020;23.094;2023-05-23T07:42:30;96842.44;;;24.52;51.52
22755;BME280;11544;42.020;23.094;2023-05-23T07:44:57;96832.63;;;23.40;53.69
22755;BME280;11544;42.020;23.094;2023-05-23T07:47:24;96826.72;;;23.56;54.73
22755;BME280;11544;42.020;23.094;2023-05-23T07:49:54;96832.19;;;23.45;52.37
22755;BME280;11544;42.020;23.094;2023-05-23T07:52:21;96830.94;;;23.49;53.35
22755;BME280;11544;42.020;23.094;2023-05-23T07:54:51;96828.63;;;23.74;51.98
22755;BME280;11544;42.020;23.094;2023-05-23T07:57:19;96824.38;;;23.43;52.33
22755;BME280;11544;42.020;23.094;2023-05-23T07:59:46;96830.69;;;22.45;52.67
22755;BME280;11544;42.020;23.094;2023-05-23T08:02:16;96823.22;;;23.56;51.45
22755;BME280;11544;42.020;23.094;2023-05-23T08:04:43;96822.19;;;23.86;51.74
22755;BME280;11544;42.020;23.094;2023-05-23T08:07:12;96815.19;;;24.58;49.60
22755;BME280;11544;42.020;23.094;2023-05-23T08:09:39;96810.72;;;24.95;48.90
22755;BME280;11544;42.020;23.094;2023-05-23T08:12:08;96812.88;;;25.17;47.24
22755;BME280;11544;42.020;23.094;2023-05-23T08:14:35;96814.50;;;24.74;46.55
22755;BME280;11544;42.020;23.094;2023-05-23T08:17:17;96809.66;;;23.96;48.25
22755;BME280;11544;42.020;23.094;2023-05-23T08:19:53;96806.88;;;23.51;49.47
22755;BME280;11544;42.020;23.094;2023-05-23T08:22:23;96804.25;;;23.68;48.11
22755;BME280;11544;42.020;23.094;2023-05-23T08:24:56;96799.94;;;22.91;49.54
22755;BME280;11544;42.020;23.094;2023-05-23T08:27:24;96794.50;;;23.97;48.70
22755;BME280;11544;42.020;23.094;2023-05-23T08:29:50;96787.81;;;24.38;47.60
22755;BME280;11544;42.020;23.094;2023-05-23T08:32:21;96788.50;;;25.12;47.43
22755;BME280;11544;42.020;23.094;2023-05-23T08:34:49;96791.22;;;25.38;47.20
22755;BME280;11544;42.020;23.094;2023-05-23T08:37:19;96781.78;;;25.08;45.99
22755;BME280;11544;42.020;23.094;2023-05-23T08:39:46;96783.81;;;25.32;44.54
22755;BME280;11544;42.020;23.094;2023-05-23T08:42:16;96777.53;;;25.67;45.79
22755;BME280;11544;42.020;23.094;2023-05-23T08:44:43;96771.19;;;26.03;44.48
22755;BME280;11544;42.020;23.094;2023-05-23T08:47:11;96772.34;;;26.00;42.53
22755;BME280;11544;42.020;23.094;2023-05-23T08:49:43;96774.69;;;25.69;44.02
22755;BME280;11544;42.020;23.094;2023-05-23T08:52:11;96762.69;;;26.74;43.24
22755;BME280;11544;42.020;23.094;2023-05-23T08:54:40;96752.34;;;26.63;42.91
22755;BME280;11544;42.020;23.094;2023-05-23T08:57:10;96753.16;;;26.80;42.29
22755;BME280;11544;42.020;23.094;2023-05-23T08:59:38;96754.75;;;26.32;41.10
22755;BME280;11544;42.020;23.094;2023-05-23T09:02:08;96755.97;;;25.61;37.75
22755;BME280;11544;42.020;23.094;2023-05-23T09:04:37;96751.13;;;25.56;37.91
22755;BME280;11544;42.020;23.094;2023-05-23T09:07:08;96742.56;;;26.37;38.97
22755;BME280;11544;42.020;23.094;2023-05-23T09:09:35;96747.31;;;25.93;39.19
22755;BME280;11544;42.020;23.094;2023-05-23T09:12:03;96741.91;;;24.98;39.00
22755;BME280;11544;42.020;23.094;2023-05-23T09:14:29;96739.13;;;25.60;40.06
22755;BME280;11544;42.020;23.094;2023-05-23T09:17:01;96730.47;;;26.01;39.45
22755;BME280;11544;42.020;23.094;2023-05-23T09:19:30;96722.94;;;25.96;39.49
22755;BME280;11544;42.020;23.094;2023-05-23T09:21:57;96725.84;;;26.11;38.52
22755;BME280;11544;42.020;23.094;2023-05-23T09:24:33;96727.38;;;26.38;39.79
22755;BME280;11544;42.020;23.094;2023-05-23T09:27:00;96717.75;;;26.78;38.63
22755;BME280;11544;42.020;23.094;2023-05-23T09:29:31;96717.72;;;27.11;39.09
22755;BME280;11544;42.020;23.094;2023-05-23T09:34:59;96705.00;;;27.04;39.18
22755;BME280;11544;42.020;23.094;2023-05-23T09:37:40;96703.84;;;26.50;39.03
22755;BME280;11544;42.020;23.094;2023-05-23T09:40:10;96710.22;;;26.81;40.42
22755;BME280;11544;42.020;23.094;2023-05-23T09:42:45;96704.22;;;26.63;37.66
22755;BME280;11544;42.020;23.094;2023-05-23T09:45:13;96703.91;;;25.22;38.87
22755;BME280;11544;42.020;23.094;2023-05-23T09:47:52;96696.00;;;26.32;37.86
22755;BME280;11544;42.020;23.094;2023-05-23T09:50:22;96689.28;;;27.18;38.71
22755;BME280;11544;42.020;23.094;2023-05-23T09:52:49;96684.94;;;27.33;37.17
22755;BME280;11544;42.020;23.094;2023-05-23T09:55:16;96688.97;;;26.88;37.80
22755;BME280;11544;42.020;23.094;2023-05-23T09:57:44;96688.13;;;27.20;37.80
22755;BME280;11544;42.020;23.094;2023-05-23T10:00:14;96679.97;;;26.32;36.70
22755;BME280;11544;42.020;23.094;2023-05-23T10:03:01;96676.06;;;26.10;37.17
22755;BME280;11544;42.020;23.094;2023-05-23T10:05:43;96675.81;;;26.70;35.62
22755;BME280;11544;42.020;23.094;2023-05-23T10:13:46;96665.91;;;26.38;35.36
22755;BME280;11544;42.020;23.094;2023-05-23T10:16:48;96671.72;;;27.15;31.98
22755;BME280;11544;42.020;23.094;2023-05-23T10:19:30;96675.56;;;27.13;32.22
22755;BME280;11544;42.020;23.094;2023-05-23T10:22:07;96659.88;;;27.10;32.38
22755;BME280;11544;42.020;23.094;2023-05-23T10:24:35;96661.31;;;27.37;32.04
22755;BME280;11544;42.020;23.094;2023-05-23T10:27:03;96659.34;;;27.70;31.17
22755;BME280;11544;42.020;23.094;2023-05-23T10:29:31;96663.13;;;26.72;32.19
22755;BME280;11544;42.020;23.094;2023-05-23T10:32:02;96648.56;;;26.17;31.66
22755;BME280;11544;42.020;23.094;2023-05-23T10:34:45;96659.53;;;25.90;33.20
22755;BME280;11544;42.020;23.094;2023-05-23T10:37:24;96664.16;;;25.80;32.55
22755;BME280;11544;42.020;23.094;2023-05-23T10:43:28;96657.19;;;25.44;32.53
22755;BME280;11544;42.020;23.094;2023-05-23T10:45:56;96654.00;;;25.06;30.75
22755;BME280;11544;42.020;23.094;2023-05-23T10:48:56;96638.81;;;25.41;32.45
22755;BME280;11544;42.020;23.094;2023-05-23T10:51:23;96649.59;;;24.97;31.98
22755;BME280;11544;42.020;23.094;2023-05-23T10:53:53;96647.78;;;25.06;32.50
22755;BME280;11544;42.020;23.094;2023-05-23T10:56:22;96635.53;;;26.14;30.79
22755;BME280;11544;42.020;23.094;2023-05-23T10:58:53;96641.72;;;26.48;29.92
22755;BME280;11544;42.020;23.094;2023-05-23T11:01:20;96634.63;;;27.04;29.33
22755;BME280;11544;42.020;23.094;2023-05-23T11:03:49;96628.28;;;27.21;28.60
22755;BME280;11544;42.020;23.094;2023-05-23T11:06:36;96631.34;;;26.94;28.72
22755;BME280;11544;42.020;23.094;2023-05-23T11:09:15;96627.28;;;27.06;28.67
22755;BME280;11544;42.020;23.094;2023-05-23T11:11:54;96625.41;;;27.23;28.60
22755;BME280;11544;42.020;23.094;2023-05-23T11:17:22;96626.63;;;27.04;29.00
22755;BME280;11544;42.020;23.094;2023-05-23T11:20:07;96625.41;;;27.31;28.15
22755;BME280;11544;42.020;23.094;2023-05-23T11:22:37;96628.69;;;26.53;27.54
22755;BME280;11544;42.020;23.094;2023-05-23T11:25:06;96623.59;;;27.07;27.43
22755;BME280;11544;42.020;23.094;2023-05-23T11:27:37;96622.44;;;27.57;27.90
22755;BME280;11544;42.020;23.094;2023-05-23T11:30:16;96612.88;;;27.15;26.15
22755;BME280;11544;42.020;23.094;2023-05-23T11:32:51;96609.66;;;27.67;26.87
22755;BME280;11544;42.020;23.094;2023-05-23T11:35:20;96611.03;;;27.24;27.22
22755;BME280;11544;42.020;23.094;2023-05-23T11:37:47;96618.16;;;27.40;27.65
22755;BME280;11544;42.020;23.094;2023-05-23T11:40:33;96615.94;;;26.96;26.05
22755;BME280;11544;42.020;23.094;2023-05-23T11:43:06;96604.28;;;26.48;26.63
22755;BME280;11544;42.020;23.094;2023-05-23T11:45:35;96608.00;;;26.14;28.69
22755;BME280;11544;42.020;23.094;2023-05-23T11:48:11;96617.00;;;26.62;27.53
22755;BME280;11544;42.020;23.094;2023-05-23T11:50:48;96608.34;;;26.44;28.26
22755;BME280;11544;42.020;23.094;2023-05-23T11:53:17;96610.19;;;26.10;27.06
22755;BME280;11544;42.020;23.094;2023-05-23T11:55:56;96607.44;;;25.77;28.47
22755;BME280;11544;42.020;23.094;2023-05-23T11:58:34;96607.72;;;25.74;27.43
22755;BME280;11544;42.020;23.094;2023-05-23T12:03:29;96604.75;;;25.86;27.15
22755;BME280;11544;42.020;23.094;2023-05-23T12:05:58;96603.47;;;25.90;27.43
22755;BME280;11544;42.020;23.094;2023-05-23T12:08:25;96600.97;;;26.05;28.40
22755;BME280;11544;42.020;23.094;2023-05-23T12:10:56;96596.53;;;25.54;27.45
22755;BME280;11544;42.020;23.094;2023-05-23T12:13:24;96597.97;;;26.49;27.30
22755;BME280;11544;42.020;23.094;2023-05-23T12:15:56;96590.66;;;27.07;26.36
22755;BME280;11544;42.020;23.094;2023-05-23T12:18:28;96577.28;;;27.15;27.38
22755;BME280;11544;42.020;23.094;2023-05-23T12:20:59;96570.28;;;27.06;26.87
22755;BME280;11544;42.020;23.094;2023-05-23T12:23:29;96568.34;;;26.83;25.24
22755;BME280;11544;42.020;23.094;2023-05-23T12:26:03;96570.81;;;27.01;24.23
22755;BME280;11544;42.020;23.094;2023-05-23T12:28:39;96574.09;;;27.11;26.20
22755;BME280;11544;42.020;23.094;2023-05-23T12:33:43;96556.34;;;27.18;24.74
22755;BME280;11544;42.020;23.094;2023-05-23T12:36:11;96556.16;;;27.28;25.53
22755;BME280;11544;42.020;23.094;2023-05-23T12:38:39;96549.69;;;27.22;24.96
22755;BME280;11544;42.020;23.094;2023-05-23T12:41:18;96543.34;;;27.15;26.58
22755;BME280;11544;42.020;23.094;2023-05-23T12:43:53;96547.88;;;27.07;27.01
22755;BME280;11544;42.020;23.094;2023-05-23T12:46:21;96547.91;;;27.38;26.35
22755;BME280;11544;42.020;23.094;2023-05-23T12:48:49;96541.31;;;27.57;26.47
22755;BME280;11544;42.020;23.094;2023-05-23T12:51:16;96534.75;;;27.28;26.06
22755;BME280;11544;42.020;23.094;2023-05-23T12:53:43;96539.19;;;27.44;26.45
22755;BME280;11544;42.020;23.094;2023-05-23T12:56:10;96539.53;;;27.10;25.49
22755;BME280;11544;42.020;23.094;2023-05-23T12:58:38;96534.41;;;27.62;26.37
22755;BME280;11544;42.020;23.094;2023-05-23T13:01:05;96536.41;;;27.60;25.08
22755;BME280;11544;42.020;23.094;2023-05-23T13:03:33;96539.53;;;27.10;25.95
22755;BME280;11544;42.020;23.094;2023-05-23T13:06:01;96537.88;;;27.40;24.92
22755;BME280;11544;42.020;23.094;2023-05-23T13:08:28;96532.75;;;27.30;25.02
22755;BME280;11544;42.020;23.094;2023-05-23T13:10:56;96529.38;;;27.36;24.67
22755;BME280;11544;42.020;23.094;2023-05-23T13:13:25;96529.09;;;27.23;24.08
22755;BME280;11544;42.020;23.094;2023-05-23T13:15:52;96531.84;;;27.38;23.94
22755;BME280;11544;42.020;23.094;2023-05-23T13:18:19;96537.31;;;27.13;24.92
22755;BME280;11544;42.020;23.094;2023-05-23T13:20:51;96532.81;;;27.22;24.17
22755;BME280;11544;42.020;23.094;2023-05-23T13:23:20;96538.28;;;26.81;25.32
22755;BME280;11544;42.020;23.094;2023-05-23T13:25:47;96540.47;;;27.25;24.80
22755;BME280;11544;42.020;23.094;2023-05-23T13:28:25;96532.97;;;26.65;25.49
22755;BME280;11544;42.020;23.094;2023-05-23T13:30:53;96534.50;;;27.07;25.04
22755;BME280;11544;42.020;23.094;2023-05-23T13:33:22;96536.59;;;27.28;25.10
22755;BME280;11544;42.020;23.094;2023-05-23T13:35:55;96539.84;;;26.67;24.80
22755;BME280;11544;42.020;23.094;2023-05-23T13:38:24;96535.47;;;27.14;24.75
22755;BME280;11544;42.020;23.094;2023-05-23T13:40:53;96539.22;;;26.96;24.48
22755;BME280;11544;42.020;23.094;2023-05-23T13:43:23;96536.41;;;26.98;24.01
22755;BME280;11544;42.020;23.094;2023-05-23T13:45:56;96538.66;;;26.61;24.60
22755;BME280;11544;42.020;23.094;2023-05-23T13:48:23;96534.19;;;27.01;24.79
22755;BME280;11544;42.020;23.094;2023-05-23T13:50:54;96530.72;;;26.93;25.30
22755;BME280;11544;42.020;23.094;2023-05-23T13:53:25;96534.16;;;27.10;24.55
22755;BME280;11544;42.020;23.094;2023-05-23T13:55:53;96530.91;;;26.91;24.02
22755;BME280;11544;42.020;23.094;2023-05-23T13:58:20;96538.25;;;26.89;24.81
22755;BME280;11544;42.020;23.094;2023-05-23T14:00:47;96532.44;;;26.77;23.89
22755;BME280;11544;42.020;23.094;2023-05-23T14:03:20;96532.22;;;26.95;25.31
22755;BME280;11544;42.020;23.094;2023-05-23T14:05:49;96536.31;;;26.75;24.43
22755;BME280;11544;42.020;23.094;2023-05-23T14:08:19;96535.16;;;26.53;23.81
22755;BME280;11544;42.020;23.094;2023-05-23T14:11:09;96541.66;;;26.75;23.56
22755;BME280;11544;42.020;23.094;2023-05-23T14:13:39;96534.09;;;26.87;23.74
22755;BME280;11544;42.020;23.094;2023-05-23T14:16:12;96530.81;;;26.52;24.21